createdAt,value
2022-10-14T00:00:52.712Z,13.85
2022-10-14T00:03:55.895Z,14.23
2022-10-14T00:06:59.747Z,14.33
2022-10-14T00:10:02.245Z,14.33
2022-10-14T00:13:06.113Z,14.20
2022-10-14T00:16:15.871Z,14.46
2022-10-14T00:19:19.713Z,14.76
2022-10-14T00:22:23.528Z,15.09
2022-10-14T00:25:26.828Z,14.27
2022-10-14T00:28:29.384Z,14.10
2022-10-14T00:31:32.451Z,12.18
2022-10-14T00:34:35.481Z,13.09
2022-10-14T00:37:39.293Z,12.18
2022-10-14T00:40:41.774Z,13.80
2022-10-14T00:43:57.385Z,14.27
2022-10-14T00:46:59.879Z,14.40
2022-10-14T00:50:02.926Z,14.08
2022-10-14T00:53:06.967Z,14.54
2022-10-14T00:56:10.682Z,15.11
2022-10-14T00:59:13.643Z,15.06
2022-10-14T01:02:16.126Z,14.95
2022-10-14T01:05:21.540Z,15.39
2022-10-14T01:08:31.735Z,15.64
2022-10-14T01:11:41.675Z,15.79
2022-10-14T01:14:55.796Z,15.30
2022-10-14T01:18:08.627Z,15.30
2022-10-14T01:21:20.739Z,15.82
2022-10-14T01:24:39.503Z,15.88
2022-10-14T01:28:00.626Z,15.82
2022-10-14T01:31:08.084Z,15.46
2022-10-14T01:34:12.233Z,15.15
2022-10-14T01:37:19.277Z,15.00
2022-10-14T01:40:30.246Z,15.27
2022-10-14T01:43:35.277Z,15.29
2022-10-14T01:46:42.556Z,15.16
2022-10-14T01:49:48.871Z,14.89
2022-10-14T01:52:55.650Z,15.48
2022-10-14T01:55:59.637Z,15.10
2022-10-14T01:59:04.110Z,15.46
2022-10-14T02:02:08.164Z,15.54
2022-10-14T02:05:18.432Z,15.51
2022-10-14T02:08:29.888Z,15.75
2022-10-14T02:11:39.277Z,15.73
2022-10-14T02:14:51.037Z,15.66
2022-10-14T02:18:00.698Z,16.03
2022-10-14T02:21:11.533Z,15.97
2022-10-14T02:24:20.786Z,15.69
2022-10-14T02:27:26.840Z,16.02
2022-10-14T02:30:33.539Z,16.42
2022-10-14T02:33:42.385Z,16.29
2022-10-14T02:36:46.468Z,16.88
2022-10-14T02:39:54.910Z,16.47
2022-10-14T02:42:57.459Z,16.08
2022-10-14T02:46:02.648Z,16.42
2022-10-14T02:49:06.459Z,16.86
2022-10-14T02:52:08.938Z,16.76
2022-10-14T02:55:11.501Z,16.95
2022-10-14T02:58:13.954Z,17.07
2022-10-14T03:01:16.403Z,17.19
2022-10-14T03:04:20.158Z,17.40
2022-10-14T03:07:22.645Z,17.18
2022-10-14T03:10:25.099Z,17.00
2022-10-14T03:13:27.555Z,17.44
2022-10-14T03:16:29.990Z,17.53
2022-10-14T03:19:33.770Z,17.91
2022-10-14T03:22:36.472Z,17.72
2022-10-14T03:25:39.061Z,17.51
2022-10-14T03:28:41.516Z,17.36
2022-10-14T03:31:44.059Z,17.36
2022-10-14T03:34:47.928Z,17.46
2022-10-14T03:37:50.523Z,17.52
2022-10-14T03:40:52.979Z,17.36
2022-10-14T03:43:55.403Z,17.68
2022-10-14T03:46:58.119Z,17.38
2022-10-14T03:50:02.994Z,17.40
2022-10-14T03:53:05.635Z,17.41
2022-10-14T03:56:10.029Z,17.39
2022-10-14T03:59:12.487Z,17.56
2022-10-14T04:02:14.943Z,17.54
2022-10-14T04:05:18.709Z,17.45
2022-10-14T04:08:21.219Z,17.68
2022-10-14T04:11:23.673Z,17.48
2022-10-14T04:14:27.211Z,17.20
2022-10-14T04:17:29.654Z,16.87
2022-10-14T04:20:33.457Z,16.70
2022-10-14T04:23:36.819Z,16.46
2022-10-14T04:26:39.385Z,16.42
2022-10-14T04:29:41.847Z,16.14
2022-10-14T04:32:44.265Z,16.21
2022-10-14T04:35:48.250Z,16.27
2022-10-14T04:38:50.690Z,15.77
2022-10-14T04:41:53.173Z,15.23
2022-10-14T04:44:55.665Z,15.24
2022-10-14T04:47:58.210Z,15.27
2022-10-14T04:51:01.989Z,15.22
2022-10-14T04:54:04.797Z,15.27
2022-10-14T04:57:07.593Z,15.45
2022-10-14T05:00:11.771Z,15.54
2022-10-14T05:03:14.203Z,15.30
2022-10-14T05:06:18.016Z,15.63
2022-10-14T05:09:20.575Z,15.11
2022-10-14T05:12:23.654Z,15.18
2022-10-14T05:15:26.303Z,14.90
2022-10-14T05:18:28.731Z,14.59
2022-10-14T05:21:32.508Z,14.82
2022-10-14T05:24:35.014Z,14.55
2022-10-14T05:27:37.434Z,14.72
2022-10-14T05:30:39.876Z,14.68
2022-10-14T05:33:42.329Z,14.63
2022-10-14T05:36:46.406Z,14.86
2022-10-14T05:39:48.853Z,14.64
2022-10-14T05:42:51.295Z,14.68
2022-10-14T05:45:53.751Z,14.73
2022-10-14T05:48:57.077Z,14.88
2022-10-14T05:52:00.859Z,15.05
2022-10-14T05:55:04.066Z,15.33
2022-10-14T05:58:06.507Z,15.77
2022-10-14T06:01:10.966Z,16.46
2022-10-14T06:04:19.297Z,17.16
2022-10-14T06:07:23.198Z,17.72
2022-10-14T06:10:25.655Z,18.17
2022-10-14T06:13:28.135Z,18.51
2022-10-14T06:16:30.584Z,18.90
2022-10-14T06:19:33.599Z,19.03
2022-10-14T06:22:37.344Z,19.71
2022-10-14T06:25:40.227Z,19.84
2022-10-14T06:28:42.817Z,20.05
2022-10-14T06:31:45.313Z,20.37
2022-10-14T06:34:47.746Z,20.44
2022-10-14T06:37:51.506Z,20.26
2022-10-14T06:40:55.006Z,19.83
2022-10-14T06:43:57.747Z,19.13
2022-10-14T06:47:00.200Z,18.62
2022-10-14T06:50:02.669Z,18.70
2022-10-14T06:53:06.647Z,18.66
2022-10-14T06:56:11.880Z,18.81
2022-10-14T06:59:14.355Z,18.27
2022-10-14T07:02:16.935Z,18.45
2022-10-14T07:05:19.507Z,18.57
2022-10-14T07:08:23.420Z,18.72
2022-10-14T07:11:26.007Z,18.76
2022-10-14T07:14:28.634Z,18.83
2022-10-14T07:17:31.179Z,18.87
2022-10-14T07:20:34.791Z,19.06
2022-10-14T07:23:38.689Z,19.13
2022-10-14T07:26:41.168Z,19.13
2022-10-14T07:29:43.968Z,19.13
2022-10-14T07:32:46.569Z,19.13
2022-10-14T07:35:49.017Z,19.49
2022-10-14T07:38:52.780Z,19.45
2022-10-14T07:41:55.901Z,19.24
2022-10-14T07:44:58.441Z,19.48
2022-10-14T07:48:00.924Z,19.63
2022-10-14T07:51:03.844Z,19.89
2022-10-14T07:54:10.306Z,20.08
2022-10-14T07:57:13.035Z,19.80
2022-10-14T08:00:15.657Z,20.07
2022-10-14T08:03:19.446Z,20.02
2022-10-14T08:06:22.045Z,19.06
2022-10-14T08:12:29.276Z,19.78
2022-10-14T08:15:34.723Z,20.15
2022-10-14T08:18:37.241Z,19.59
2022-10-14T08:21:39.682Z,19.73
2022-10-14T08:24:44.345Z,19.95
2022-10-14T08:27:52.494Z,20.14
2022-10-14T08:30:54.949Z,20.00
2022-10-14T08:33:58.221Z,20.35
2022-10-14T08:37:02.272Z,20.85
2022-10-14T08:40:07.601Z,20.96
2022-10-14T08:43:19.506Z,21.21
2022-10-14T08:46:24.725Z,21.30
2022-10-14T08:49:33.396Z,21.31
2022-10-14T08:52:40.700Z,21.57
2022-10-14T08:55:47.548Z,21.43
2022-10-14T08:58:51.876Z,21.37
2022-10-14T09:01:58.608Z,21.47
2022-10-14T09:05:02.233Z,21.59
2022-10-14T09:08:06.238Z,21.82
2022-10-14T09:11:14.449Z,22.92
2022-10-14T09:14:20.812Z,23.10
2022-10-14T09:17:27.848Z,22.15
2022-10-14T09:20:30.425Z,21.90
2022-10-14T09:23:32.894Z,21.99
2022-10-14T09:26:42.209Z,22.20
2022-10-14T09:29:49.606Z,22.36
2022-10-14T09:32:55.181Z,22.50
2022-10-14T09:39:05.370Z,22.78
2022-10-14T09:42:16.578Z,22.88
2022-10-14T09:45:22.785Z,23.06
2022-10-14T09:48:37.704Z,23.32
2022-10-14T09:51:43.597Z,23.05
2022-10-14T09:54:46.283Z,23.04
2022-10-14T09:57:59.485Z,23.65
2022-10-14T10:01:03.478Z,24.62
2022-10-14T10:04:27.325Z,25.72
2022-10-14T10:07:33.644Z,25.77
2022-10-14T10:10:36.191Z,25.84
2022-10-14T10:13:44.877Z,26.16
2022-10-14T10:16:48.797Z,26.43
2022-10-14T10:19:55.337Z,25.90
2022-10-14T10:22:59.934Z,26.09
2022-10-14T10:26:21.491Z,25.51
2022-10-14T10:29:29.067Z,25.28
2022-10-14T10:32:38.889Z,25.27
2022-10-14T10:35:55.863Z,25.24
2022-10-14T10:39:02.625Z,25.10
2022-10-14T10:42:15.962Z,25.85
2022-10-14T10:45:36.774Z,26.15
2022-10-14T10:48:46.203Z,26.19
2022-10-14T10:51:55.351Z,26.36
2022-10-14T10:55:10.244Z,26.44
2022-10-14T10:58:27.622Z,25.97
2022-10-14T11:01:43.740Z,26.07
2022-10-14T11:04:51.580Z,25.53
2022-10-14T11:08:16.235Z,25.59
2022-10-14T11:11:43.669Z,25.55
2022-10-14T11:15:26.190Z,26.20
2022-10-14T11:18:39.078Z,25.94
2022-10-14T11:21:48.220Z,25.80
2022-10-14T11:25:03.646Z,25.90
2022-10-14T11:28:11.945Z,26.34
2022-10-14T11:31:26.827Z,26.09
2022-10-14T11:34:43.764Z,25.87
2022-10-14T11:37:58.527Z,25.44
2022-10-14T11:41:07.069Z,25.10
2022-10-14T11:44:16.589Z,25.93
2022-10-14T11:47:24.740Z,26.83
2022-10-14T11:50:32.881Z,26.14
2022-10-14T11:53:44.382Z,26.46
2022-10-14T11:56:53.954Z,25.99
2022-10-14T12:00:17.755Z,26.19
2022-10-14T12:03:37.877Z,26.51
2022-10-14T12:06:45.715Z,26.70
2022-10-14T12:09:57.376Z,26.70
2022-10-14T12:13:07.801Z,26.11
2022-10-14T12:16:14.952Z,26.34
2022-10-14T12:19:23.555Z,26.33
2022-10-14T12:22:30.190Z,26.01
2022-10-14T12:25:40.434Z,26.26
2022-10-14T12:28:43.942Z,26.25
2022-10-14T12:31:51.690Z,26.79
2022-10-14T12:34:55.528Z,26.67
2022-10-14T12:38:04.556Z,27.04
2022-10-14T12:41:39.346Z,27.16
2022-10-14T12:44:48.662Z,26.55
2022-10-14T12:48:06.869Z,26.40
2022-10-14T12:51:13.291Z,26.65
2022-10-14T12:54:17.442Z,26.40
2022-10-14T12:57:27.786Z,26.59
2022-10-14T13:00:33.032Z,26.97
2022-10-14T13:03:46.559Z,27.33
2022-10-14T13:07:39.812Z,27.50
2022-10-14T13:10:50.447Z,27.01
2022-10-14T13:14:02.705Z,27.05
2022-10-14T13:17:43.291Z,27.10
2022-10-14T13:20:52.362Z,27.07
2022-10-14T13:23:55.755Z,27.03
2022-10-14T13:27:08.783Z,27.12
2022-10-14T13:30:19.574Z,27.05
2022-10-14T13:33:27.490Z,27.49
2022-10-14T13:36:36.558Z,28.58
2022-10-14T13:39:39.027Z,28.58
2022-10-14T13:42:43.234Z,28.15
2022-10-14T13:45:51.591Z,28.22
2022-10-14T13:48:57.740Z,28.28
2022-10-14T13:52:04.354Z,28.06
2022-10-14T13:55:14.754Z,27.74
2022-10-14T13:58:20.586Z,28.10
2022-10-14T14:01:25.736Z,27.52
2022-10-14T14:04:31.579Z,23.04
2022-10-14T14:08:08.482Z,22.42
2022-10-14T14:11:16.112Z,24.94
2022-10-14T14:14:23.932Z,22.42
2022-10-14T14:17:27.589Z,24.04
2022-10-14T14:20:33.868Z,25.02
2022-10-14T14:23:36.414Z,25.15
2022-10-14T14:26:40.461Z,25.09
2022-10-14T14:29:46.962Z,24.83
2022-10-14T14:32:49.607Z,24.50
2022-10-14T14:35:55.837Z,25.23
2022-10-14T14:39:01.187Z,25.11
2022-10-14T14:42:03.605Z,24.94
2022-10-14T14:45:13.907Z,25.37
2022-10-14T14:48:17.606Z,25.04
2022-10-14T14:51:20.403Z,24.93
2022-10-14T14:54:24.421Z,24.90
2022-10-14T14:57:26.908Z,24.80
2022-10-14T15:00:31.141Z,24.42
2022-10-14T15:04:13.163Z,24.61
2022-10-14T15:07:21.353Z,24.89
2022-10-14T15:10:27.721Z,24.77
2022-10-14T15:13:45.975Z,25.12
2022-10-14T15:16:54.276Z,24.86
2022-10-14T15:19:58.097Z,24.67
2022-10-14T15:23:00.674Z,24.86
2022-10-14T15:26:03.104Z,24.73
2022-10-14T15:29:18.636Z,24.75
2022-10-14T15:32:22.991Z,24.53
2022-10-14T15:35:26.459Z,24.54
2022-10-14T15:41:38.622Z,24.27
2022-10-14T15:44:41.156Z,24.20
2022-10-14T15:47:45.039Z,24.12
2022-10-14T15:50:48.617Z,24.38
2022-10-14T15:53:51.788Z,24.09
2022-10-14T15:59:59.061Z,24.21
2022-10-14T16:03:03.747Z,24.08
2022-10-14T16:06:06.687Z,23.71
2022-10-14T16:09:09.295Z,23.31
2022-10-14T16:12:13.734Z,23.63
2022-10-14T16:15:33.245Z,23.41
2022-10-14T16:18:37.032Z,22.95
2022-10-14T16:21:40.281Z,22.86
2022-10-14T16:24:42.731Z,22.94
2022-10-14T16:27:45.221Z,22.76
2022-10-14T16:30:50.389Z,22.04
2022-10-14T16:33:55.507Z,21.49
2022-10-14T16:36:57.928Z,21.83
2022-10-14T16:40:00.554Z,21.79
2022-10-14T16:43:03.054Z,21.35
2022-10-14T16:46:09.336Z,21.51
2022-10-14T16:49:15.851Z,21.31
2022-10-14T16:52:20.023Z,20.78
2022-10-14T16:55:23.937Z,20.64
2022-10-14T16:58:27.711Z,20.28
2022-10-14T17:01:30.456Z,20.50
2022-10-14T17:04:34.282Z,20.71
2022-10-14T17:07:36.761Z,20.45
2022-10-14T17:10:39.532Z,20.31
2022-10-14T17:13:41.942Z,20.36
2022-10-14T17:16:46.127Z,20.43
2022-10-14T17:19:50.665Z,20.39
2022-10-14T17:22:53.094Z,20.40
2022-10-14T17:25:55.552Z,20.89
2022-10-14T17:28:58.866Z,20.99
2022-10-14T17:32:01.339Z,20.75
2022-10-14T17:35:06.220Z,21.23
2022-10-14T17:38:09.419Z,21.34
2022-10-14T17:41:13.696Z,21.38
2022-10-14T17:44:16.168Z,21.35
2022-10-14T17:47:18.817Z,21.42
2022-10-14T17:50:22.834Z,21.65
2022-10-14T17:53:26.040Z,21.64
2022-10-14T17:56:30.624Z,21.55
2022-10-14T17:59:33.087Z,20.75
2022-10-14T18:02:35.563Z,21.29
2022-10-14T18:05:43.973Z,21.32
2022-10-14T18:08:52.391Z,21.45
2022-10-14T18:12:10.655Z,20.51
2022-10-14T18:15:13.310Z,20.88
2022-10-14T18:18:15.837Z,20.68
2022-10-14T18:21:20.138Z,21.30
2022-10-14T18:24:22.931Z,21.07
2022-10-14T18:27:25.768Z,21.33
2022-10-14T18:30:28.319Z,21.31
2022-10-14T18:33:32.976Z,21.35
2022-10-14T18:36:36.810Z,21.38
2022-10-14T18:39:39.306Z,21.39
2022-10-14T18:42:41.729Z,21.29
2022-10-14T18:45:44.154Z,21.25
2022-10-14T18:48:48.248Z,21.24
2022-10-14T18:51:53.429Z,21.23
2022-10-14T18:54:55.874Z,21.36
2022-10-14T18:57:58.298Z,21.41
2022-10-14T19:01:01.265Z,21.27
2022-10-14T19:04:05.682Z,21.34
2022-10-14T19:07:09.445Z,21.39
2022-10-14T19:10:11.915Z,21.27
2022-10-14T19:13:14.344Z,21.18
2022-10-14T19:16:18.654Z,21.23
2022-10-14T19:19:21.190Z,20.85
2022-10-14T19:22:25.233Z,21.02
2022-10-14T19:25:28.092Z,20.72
2022-10-14T19:28:30.582Z,20.75
2022-10-14T19:31:35.395Z,20.77
2022-10-14T19:34:38.041Z,20.83
2022-10-14T19:37:41.781Z,20.85
2022-10-14T19:40:44.232Z,20.67
2022-10-14T19:43:46.782Z,20.89
2022-10-14T19:46:49.266Z,21.09
2022-10-14T19:49:51.706Z,21.05
2022-10-14T19:52:55.458Z,21.22
2022-10-14T19:56:03.754Z,21.49
2022-10-14T19:59:06.255Z,21.17
2022-10-14T20:02:09.517Z,21.27
2022-10-14T20:05:11.939Z,17.49
2022-10-14T20:11:24.813Z,19.74
2022-10-14T20:14:27.948Z,19.84
2022-10-14T20:17:30.518Z,19.88
2022-10-14T20:20:33.366Z,20.14
2022-10-14T20:23:38.951Z,20.31
2022-10-14T20:26:41.503Z,19.91
2022-10-14T20:29:44.038Z,20.35
2022-10-14T20:32:46.553Z,20.31
2022-10-14T20:35:49.091Z,20.64
2022-10-14T20:38:52.890Z,20.94
2022-10-14T20:41:55.353Z,20.63
2022-10-14T20:44:57.860Z,20.80
2022-10-14T20:48:00.285Z,20.77
2022-10-14T20:51:05.587Z,21.01
2022-10-14T20:54:11.747Z,20.92
2022-10-14T20:57:14.486Z,20.71
2022-10-14T21:00:17.419Z,20.66
2022-10-14T21:03:19.856Z,20.63
2022-10-14T21:06:24.897Z,20.55
2022-10-14T21:09:29.610Z,20.69
2022-10-14T21:12:32.040Z,20.50
2022-10-14T21:15:34.510Z,20.50
2022-10-14T21:18:36.962Z,20.96
2022-10-14T21:21:43.151Z,20.71
2022-10-14T21:24:47.072Z,20.62
2022-10-14T21:27:49.491Z,20.57
2022-10-14T21:30:52.182Z,20.46
2022-10-14T21:34:05.047Z,20.63
2022-10-14T21:37:08.133Z,21.01
2022-10-14T21:40:12.975Z,21.21
2022-10-14T21:43:15.418Z,21.00
2022-10-14T21:46:18.225Z,21.20
2022-10-14T21:49:20.751Z,21.42
2022-10-14T21:52:23.986Z,21.52
2022-10-14T21:55:28.030Z,21.61
2022-10-14T21:58:31.541Z,21.49
2022-10-14T22:01:34.720Z,21.39
2022-10-14T22:04:38.395Z,21.74
2022-10-14T22:07:40.933Z,21.75
2022-10-14T22:10:45.399Z,21.79
2022-10-14T22:13:48.227Z,21.84
2022-10-14T22:16:50.882Z,21.59
2022-10-14T22:19:53.331Z,21.74
2022-10-14T22:22:55.863Z,21.96
2022-10-14T22:26:01.562Z,22.19
2022-10-14T22:29:06.753Z,22.14
2022-10-14T22:32:09.192Z,21.82
2022-10-14T22:35:11.659Z,21.93
2022-10-14T22:38:14.077Z,21.78
2022-10-14T22:41:19.549Z,21.66
2022-10-14T22:44:22.002Z,21.08
2022-10-14T22:47:24.909Z,21.01
2022-10-14T22:50:27.715Z,20.66
2022-10-14T22:53:30.318Z,20.66
2022-10-14T22:56:34.333Z,20.88
2022-10-14T22:59:36.758Z,20.63
2022-10-14T23:02:39.246Z,20.66
2022-10-14T23:05:41.900Z,20.66
2022-10-14T23:08:44.691Z,20.54
2022-10-14T23:11:48.447Z,20.53
2022-10-14T23:14:51.359Z,20.10
2022-10-14T23:17:53.770Z,20.11
2022-10-14T23:20:56.776Z,20.14
2022-10-14T23:24:01.887Z,20.19
2022-10-14T23:27:05.630Z,20.15
2022-10-14T23:30:09.034Z,20.38
2022-10-14T23:33:11.816Z,20.53
2022-10-14T23:36:15.853Z,20.44
2022-10-14T23:39:18.303Z,20.20
2022-10-14T23:42:22.070Z,20.41
2022-10-14T23:45:24.610Z,20.18
2022-10-14T23:48:27.738Z,20.21
2022-10-14T23:51:30.985Z,20.17
2022-10-14T23:54:33.445Z,20.18
2022-10-14T23:57:37.201Z,20.49
